Time,TemperatureF,DewpointF,PressureIn,WindDirection,WindDirectionDegrees,WindSpeedMPH,WindSpeedGustMPH,Humidity,HourlyPrecipIn,Conditions,Clouds,dailyrainin,SoftwareType,DateUTC
2013-05-10 00:01:00,73.0,47.0,-100.00,WNW,282,21.0,21.0,39,-99.99,,,-99.99,,2013-05-10 07:01:00,
2013-05-10 00:11:00,73.0,47.0,-100.00,WNW,282,21.0,21.0,39,-99.99,,,-99.99,,2013-05-10 07:11:00,
2013-05-10 00:22:00,73.0,47.0,-100.00,WNW,282,21.0,21.0,39,-99.99,,,-99.99,,2013-05-10 07:22:00,
2013-05-10 00:31:00,73.0,47.0,-100.00,WNW,282,21.0,21.0,39,-99.99,,,-99.99,,2013-05-10 07:31:00,
2013-05-10 01:02:00,73.0,47.0,-100.00,WNW,282,21.0,21.0,39,-99.99,,,-99.99,,2013-05-10 08:02:00,
2013-05-10 01:12:00,73.0,47.0,-100.00,WNW,282,21.0,21.0,39,-99.99,,,-99.99,,2013-05-10 08:12:00,
2013-05-10 01:32:00,73.0,47.0,-100.00,WNW,282,21.0,21.0,39,-99.99,,,-99.99,,2013-05-10 08:32:00,
2013-05-10 01:42:00,73.0,47.0,-100.00,WNW,282,21.0,21.0,39,-99.99,,,-99.99,,2013-05-10 08:42:00,
2013-05-10 02:01:00,73.0,47.0,-100.00,WNW,282,21.0,21.0,39,-99.99,,,-99.99,,2013-05-10 09:01:00,
2013-05-10 02:11:00,73.0,47.0,-100.00,WNW,282,21.0,21.0,39,-99.99,,,-99.99,,2013-05-10 09:11:00,
2013-05-10 02:32:00,73.0,47.0,-100.00,WNW,282,21.0,21.0,39,-99.99,,,-99.99,,2013-05-10 09:32:00,
2013-05-10 02:42:00,73.0,47.0,-100.00,WNW,282,21.0,21.0,39,-99.99,,,-99.99,,2013-05-10 09:42:00,
2013-05-10 02:52:00,73.0,47.0,-100.00,WNW,282,21.0,21.0,39,-99.99,,,-99.99,,2013-05-10 09:52:00,
2013-05-10 03:02:00,73.0,47.0,-100.00,WNW,282,21.0,21.0,39,-99.99,,,-99.99,,2013-05-10 10:02:00,
2013-05-10 03:12:00,73.0,47.0,-100.00,WNW,282,21.0,21.0,39,-99.99,,,-99.99,,2013-05-10 10:12:00,
2013-05-10 03:32:00,73.0,47.0,-100.00,WNW,282,21.0,21.0,39,-99.99,,,-99.99,,2013-05-10 10:32:00,
2013-05-10 03:42:00,73.0,47.0,-100.00,WNW,282,21.0,21.0,39,-99.99,,,-99.99,,2013-05-10 10:42:00,
2013-05-10 03:52:00,73.0,47.0,-100.00,WNW,282,21.0,21.0,39,-99.99,,,-99.99,,2013-05-10 10:52:00,
2013-05-10 04:02:00,73.0,47.0,-100.00,WNW,282,21.0,21.0,39,-99.99,,,-99.99,,2013-05-10 11:02:00,
2013-05-10 04:42:00,73.0,47.0,-100.00,WNW,282,21.0,21.0,39,-99.99,,,-99.99,,2013-05-10 11:42:00,
2013-05-10 05:01:00,73.0,47.0,-100.00,WNW,282,21.0,21.0,39,-99.99,,,-99.99,,2013-05-10 12:01:00,
2013-05-10 05:11:00,73.0,47.0,-100.00,WNW,282,21.0,21.0,39,-99.99,,,-99.99,,2013-05-10 12:11:00,
2013-05-10 05:42:00,73.0,47.0,-100.00,WNW,282,21.0,21.0,39,-99.99,,,-99.99,,2013-05-10 12:42:00,
2013-05-10 06:11:00,73.0,47.0,-100.00,WNW,282,21.0,21.0,39,-99.99,,,-99.99,,2013-05-10 13:11:00,
2013-05-10 06:41:00,73.0,47.0,-100.00,WNW,282,21.0,21.0,39,-99.99,,,-99.99,,2013-05-10 13:41:00,
2013-05-10 07:11:00,73.0,47.0,-100.00,WNW,282,21.0,21.0,39,-99.99,,,-99.99,,2013-05-10 14:11:00,
2013-05-10 07:32:00,73.0,47.0,-100.00,WNW,282,21.0,21.0,39,-99.99,,,-99.99,,2013-05-10 14:32:00,
2013-05-10 07:41:00,73.0,47.0,-100.00,WNW,282,21.0,21.0,39,-99.99,,,-99.99,,2013-05-10 14:41:00,
2013-05-10 08:20:00,-999.0,-99.9,-100.00,WNW,282,21.0,21.0,39,-99.99,,,-99.99,,2013-05-10 15:20:00,
2013-05-10 09:02:00,73.0,47.0,-100.00,WNW,282,21.0,21.0,39,-99.99,,,-99.99,,2013-05-10 16:02:00,
2013-05-10 09:12:00,73.0,47.0,-100.00,WNW,282,21.0,21.0,39,-99.99,,,-99.99,,2013-05-10 16:12:00,
2013-05-10 09:32:00,73.0,47.0,-100.00,WNW,282,21.0,21.0,39,-99.99,,,-99.99,,2013-05-10 16:32:00,
2013-05-10 09:42:00,73.0,47.0,-100.00,WNW,282,21.0,21.0,39,-99.99,,,-99.99,,2013-05-10 16:42:00,
2013-05-10 10:12:00,73.0,47.0,-100.00,WNW,282,21.0,21.0,39,-99.99,,,-99.99,,2013-05-10 17:12:00,
2013-05-10 10:21:00,73.0,47.0,-100.00,WNW,282,21.0,21.0,39,-99.99,,,-99.99,,2013-05-10 17:21:00,
2013-05-10 10:32:00,73.0,47.0,-100.00,WNW,282,21.0,21.0,39,-99.99,,,-99.99,,2013-05-10 17:32:00,
2013-05-10 10:42:00,73.0,47.0,-100.00,WNW,282,21.0,21.0,39,-99.99,,,-99.99,,2013-05-10 17:42:00,
2013-05-10 10:52:00,73.0,47.0,-100.00,WNW,282,21.0,21.0,39,-99.99,,,-99.99,,2013-05-10 17:52:00,
2013-05-10 11:10:00,-999.0,-99.9,-100.00,WNW,282,21.0,21.0,39,-99.99,,,-99.99,,2013-05-10 18:10:00,
2013-05-10 11:21:00,73.0,47.0,-100.00,WNW,282,21.0,21.0,39,-99.99,,,-99.99,,2013-05-10 18:21:00,
2013-05-10 11:34:00,73.0,47.0,-100.00,WNW,282,21.0,21.0,39,-99.99,,,-99.99,,2013-05-10 18:34:00,
2013-05-10 11:43:00,73.0,47.0,-100.00,WNW,282,21.0,21.0,39,-99.99,,,-99.99,,2013-05-10 18:43:00,
2013-05-10 11:54:00,73.0,47.0,-100.00,WNW,282,21.0,21.0,39,-99.99,,,-99.99,,2013-05-10 18:54:00,
2013-05-10 12:02:00,73.0,47.0,-100.00,WNW,282,21.0,21.0,39,-99.99,,,-99.99,,2013-05-10 19:02:00,
2013-05-10 12:11:00,73.0,47.0,-100.00,WNW,282,21.0,21.0,39,-99.99,,,-99.99,,2013-05-10 19:11:00,
2013-05-10 12:21:00,73.0,47.0,-100.00,WNW,282,21.0,21.0,39,-99.99,,,-99.99,,2013-05-10 19:21:00,
2013-05-10 12:32:00,73.0,47.0,-100.00,WNW,282,21.0,21.0,39,-99.99,,,-99.99,,2013-05-10 19:32:00,
2013-05-10 12:42:00,73.0,47.0,-100.00,WNW,282,21.0,21.0,39,-99.99,,,-99.99,,2013-05-10 19:42:00,
2013-05-10 12:52:00,73.0,47.0,-100.00,WNW,282,21.0,21.0,39,-99.99,,,-99.99,,2013-05-10 19:52:00,
2013-05-10 13:01:00,73.0,47.0,-100.00,WNW,282,21.0,21.0,39,-99.99,,,-99.99,,2013-05-10 20:01:00,
2013-05-10 13:12:00,73.0,47.0,-100.00,WNW,282,21.0,21.0,39,-99.99,,,-99.99,,2013-05-10 20:12:00,
2013-05-10 13:21:00,73.0,47.0,-100.00,WNW,282,21.0,21.0,39,-99.99,,,-99.99,,2013-05-10 20:21:00,
2013-05-10 13:31:00,73.0,47.0,-100.00,WNW,282,21.0,21.0,39,-99.99,,,-99.99,,2013-05-10 20:31:00,
2013-05-10 13:41:00,73.0,47.0,-100.00,WNW,282,21.0,21.0,39,-99.99,,,-99.99,,2013-05-10 20:41:00,
2013-05-10 13:52:00,73.0,47.0,-100.00,WNW,282,21.0,21.0,39,-99.99,,,-99.99,,2013-05-10 20:52:00,
2013-05-10 14:01:00,73.0,47.0,-100.00,WNW,282,21.0,21.0,39,-99.99,,,-99.99,,2013-05-10 21:01:00,
2013-05-10 14:11:00,73.0,47.0,-100.00,WNW,282,21.0,21.0,39,-99.99,,,-99.99,,2013-05-10 21:11:00,
2013-05-10 14:32:00,73.0,47.0,-100.00,WNW,282,21.0,21.0,39,-99.99,,,-99.99,,2013-05-10 21:32:00,
2013-05-10 14:52:00,81.0,40.0,-100.00,WNW,288,10.0,13.0,23,-99.99,,,-99.99,,2013-05-10 21:52:00,
2013-05-10 15:02:00,81.0,40.0,-100.00,WNW,288,10.0,13.0,23,-99.99,,,-99.99,,2013-05-10 22:02:00,
2013-05-10 15:12:00,82.0,41.0,-100.00,WNW,292,11.0,13.0,23,-99.99,,,-99.99,,2013-05-10 22:12:00,
2013-05-10 15:22:00,82.0,43.0,-100.00,WNW,290,11.0,13.0,25,-99.99,,,-99.99,,2013-05-10 22:22:00,
2013-05-10 15:32:00,82.0,42.0,-100.00,WNW,288,12.0,15.0,24,-99.99,,,-99.99,,2013-05-10 22:32:00,
2013-05-10 15:42:00,82.0,41.0,-100.00,WNW,286,13.0,16.0,23,-99.99,,,-99.99,,2013-05-10 22:42:00,
2013-05-10 15:52:00,83.0,43.0,-100.00,WNW,288,14.0,16.0,24,-99.99,,,-99.99,,2013-05-10 22:52:00,
2013-05-10 16:02:00,83.0,42.0,-100.00,WNW,292,14.0,15.0,24,-99.99,,,-99.99,,2013-05-10 23:02:00,
2013-05-10 16:12:00,83.0,42.0,-100.00,WNW,290,14.0,15.0,23,-99.99,,,-99.99,,2013-05-10 23:12:00,
2013-05-10 16:22:00,83.0,42.0,-100.00,WNW,289,14.0,14.0,23,-99.99,,,-99.99,,2013-05-10 23:22:00,
2013-05-10 16:32:00,83.0,45.0,-100.00,WNW,294,15.0,18.0,26,-99.99,,,-99.99,,2013-05-10 23:32:00,
2013-05-10 16:41:00,82.0,45.0,-100.00,WNW,292,16.0,17.0,27,-99.99,,,-99.99,,2013-05-10 23:41:00,
2013-05-10 16:52:00,82.0,45.0,-100.00,WNW,288,17.0,20.0,26,-99.99,,,-99.99,,2013-05-10 23:52:00,
2013-05-10 17:01:00,82.0,45.0,-100.00,WNW,288,17.0,20.0,26,-99.99,,,-99.99,,2013-05-11 00:01:00,
2013-05-10 17:11:00,81.0,46.0,-100.00,WNW,288,16.0,20.0,29,-99.99,,,-99.99,,2013-05-11 00:11:00,
2013-05-10 17:21:00,81.0,46.0,-100.00,WNW,285,17.0,19.0,28,-99.99,,,-99.99,,2013-05-11 00:21:00,
2013-05-10 17:32:00,81.0,45.0,-100.00,WNW,288,17.0,21.0,29,-99.99,,,-99.99,,2013-05-11 00:32:00,
2013-05-10 17:42:00,81.0,45.0,-100.00,WNW,288,17.0,21.0,29,-99.99,,,-99.99,,2013-05-11 00:42:00,
2013-05-10 18:01:00,79.0,47.0,-100.00,WNW,291,19.0,21.0,32,-99.99,,,-99.99,,2013-05-11 01:01:00,
2013-05-10 18:11:00,79.0,47.0,-100.00,WNW,285,17.0,20.0,32,-99.99,,,-99.99,,2013-05-11 01:11:00,
2013-05-10 18:21:00,78.0,46.0,-100.00,WNW,288,21.0,27.0,32,-99.99,,,-99.99,,2013-05-11 01:21:00,
2013-05-10 18:31:00,78.0,46.0,-100.00,WNW,284,21.0,25.0,32,-99.99,,,-99.99,,2013-05-11 01:31:00,
2013-05-10 18:42:00,78.0,46.0,-100.00,WNW,283,22.0,28.0,33,-99.99,,,-99.99,,2013-05-11 01:42:00,
2013-05-10 18:52:00,77.0,45.0,-100.00,WNW,286,22.0,29.0,31,-99.99,,,-99.99,,2013-05-11 01:52:00,
2013-05-10 19:02:00,77.0,45.0,-100.00,WNW,289,24.0,27.0,31,-99.99,,,-99.99,,2013-05-11 02:02:00,
2013-05-10 19:11:00,76.0,47.0,-100.00,WNW,289,24.0,28.0,35,-99.99,,,-99.99,,2013-05-11 02:11:00,
2013-05-10 19:21:00,76.0,49.0,-100.00,WNW,291,26.0,32.0,37,-99.99,,,-99.99,,2013-05-11 02:21:00,
2013-05-10 19:32:00,76.0,48.0,-100.00,WNW,290,25.0,29.0,36,-99.99,,,-99.99,,2013-05-11 02:32:00,
2013-05-10 19:42:00,75.0,44.0,-100.00,WNW,286,28.0,34.0,32,-99.99,,,-99.99,,2013-05-11 02:42:00,
2013-05-10 19:51:00,75.0,43.0,-100.00,WNW,292,25.0,30.0,32,-99.99,,,-99.99,,2013-05-11 02:51:00,
2013-05-10 20:01:00,75.0,43.0,-100.00,WNW,292,25.0,30.0,32,-99.99,,,-99.99,,2013-05-11 03:01:00,
2013-05-10 20:11:00,74.0,43.0,-100.00,WNW,290,25.0,31.0,33,-99.99,,,-99.99,,2013-05-11 03:11:00,
2013-05-10 20:21:00,73.0,42.0,-100.00,WNW,286,25.0,30.0,32,-99.99,,,-99.99,,2013-05-11 03:21:00,
2013-05-10 20:32:00,73.0,42.0,-100.00,WNW,289,27.0,31.0,32,-99.99,,,-99.99,,2013-05-11 03:32:00,
2013-05-10 20:42:00,73.0,41.0,-100.00,WNW,292,27.0,32.0,31,-99.99,,,-99.99,,2013-05-11 03:42:00,
2013-05-10 20:53:00,72.0,41.0,-100.00,WNW,288,27.0,30.0,31,-99.99,,,-99.99,,2013-05-11 03:53:00,
2013-05-10 21:02:00,72.0,41.0,-100.00,WNW,288,27.0,30.0,31,-99.99,,,-99.99,,2013-05-11 04:02:00,
2013-05-10 21:12:00,72.0,41.0,-100.00,WNW,292,25.0,29.0,32,-99.99,,,-99.99,,2013-05-11 04:12:00,
2013-05-10 21:23:00,72.0,40.0,-100.00,WNW,292,24.0,29.0,32,-99.99,,,-99.99,,2013-05-11 04:23:00,
2013-05-10 21:33:00,72.0,39.0,-100.00,WNW,295,25.0,29.0,30,-99.99,,,-99.99,,2013-05-11 04:33:00,
2013-05-10 21:43:00,72.0,38.0,-100.00,WNW,299,25.0,29.0,29,-99.99,,,-99.99,,2013-05-11 04:43:00,
2013-05-10 21:52:00,72.0,37.0,-100.00,WNW,297,25.0,28.0,28,-99.99,,,-99.99,,2013-05-11 04:52:00,
2013-05-10 22:02:00,72.0,37.0,-100.00,WNW,293,27.0,31.0,27,-99.99,,,-99.99,,2013-05-11 05:02:00,
2013-05-10 22:12:00,71.0,36.0,-100.00,WNW,296,25.0,30.0,28,-99.99,,,-99.99,,2013-05-11 05:12:00,
2013-05-10 22:21:00,71.0,37.0,-100.00,WNW,295,26.0,30.0,29,-99.99,,,-99.99,,2013-05-11 05:21:00,
2013-05-10 22:32:00,70.0,38.0,-100.00,WNW,294,26.0,30.0,30,-99.99,,,-99.99,,2013-05-11 05:32:00,
2013-05-10 22:42:00,70.0,39.0,-100.00,WNW,291,27.0,30.0,31,-99.99,,,-99.99,,2013-05-11 05:42:00,
2013-05-10 22:52:00,69.0,39.0,-100.00,WNW,287,28.0,31.0,32,-99.99,,,-99.99,,2013-05-11 05:52:00,
2013-05-10 23:02:00,69.0,39.0,-100.00,WNW,287,28.0,31.0,32,-99.99,,,-99.99,,2013-05-11 06:02:00,
2013-05-10 23:12:00,68.0,43.0,-100.00,WNW,288,25.0,28.0,40,-99.99,,,-99.99,,2013-05-11 06:12:00,
2013-05-10 23:21:00,68.0,44.0,-100.00,WNW,290,24.0,27.0,41,-99.99,,,-99.99,,2013-05-11 06:21:00,
2013-05-10 23:32:00,68.0,44.0,-100.00,WNW,289,22.0,24.0,41,-99.99,,,-99.99,,2013-05-11 06:32:00,
2013-05-10 23:42:00,68.0,45.0,-100.00,WNW,293,22.0,25.0,43,-99.99,,,-99.99,,2013-05-11 06:42:00,
2013-05-10 23:52:00,68.0,46.0,-100.00,WNW,289,22.0,24.0,44,-99.99,,,-99.99,,2013-05-11 06:52:00,